sensor_id;sensor_type;location;lat;lon;timestamp;temperature;humidity
7030;DHT22;3556;53.500;10.176;2022-07-11T00:00:08;11.70;99.90
7030;DHT22;3556;53.500;10.176;2022-07-11T00:02:35;11.60;99.90
7030;DHT22;3556;53.500;10.176;2022-07-11T00:05:00;11.50;99.90
7030;DHT22;3556;53.500;10.176;2022-07-11T00:07:27;11.50;99.90
7030;DHT22;3556;53.500;10.176;2022-07-11T00:09:53;11.50;99.90
7030;DHT22;3556;53.500;10.176;2022-07-11T00:12:19;11.50;99.90
7030;DHT22;3556;53.500;10.176;2022-07-11T00:14:50;11.40;99.90
7030;DHT22;3556;53.500;10.176;2022-07-11T00:17:16;11.40;99.90
7030;DHT22;3556;53.500;10.176;2022-07-11T00:19:42;11.30;99.90
7030;DHT22;3556;53.500;10.176;2022-07-11T00:22:07;11.30;99.90
7030;DHT22;3556;53.500;10.176;2022-07-11T00:24:34;11.30;99.90
7030;DHT22;3556;53.500;10.176;2022-07-11T00:27:00;11.30;99.90
7030;DHT22;3556;53.500;10.176;2022-07-11T00:29:26;11.30;99.90
7030;DHT22;3556;53.500;10.176;2022-07-11T00:31:52;11.20;99.90
7030;DHT22;3556;53.500;10.176;2022-07-11T00:34:17;11.20;99.90
7030;DHT22;3556;53.500;10.176;2022-07-11T00:36:43;11.10;99.90
7030;DHT22;3556;53.500;10.176;2022-07-11T00:39:09;11.20;99.90
7030;DHT22;3556;53.500;10.176;2022-07-11T00:41:35;11.10;99.90
7030;DHT22;3556;53.500;10.176;2022-07-11T00:44:01;11.10;99.90
7030;DHT22;3556;53.500;10.176;2022-07-11T00:46:28;11.00;99.90
7030;DHT22;3556;53.500;10.176;2022-07-11T00:48:54;11.00;99.90
7030;DHT22;3556;53.500;10.176;2022-07-11T00:51:21;11.00;99.90
7030;DHT22;3556;53.500;10.176;2022-07-11T00:53:49;10.90;99.90
7030;DHT22;3556;53.500;10.176;2022-07-11T00:56:18;10.90;99.90
7030;DHT22;3556;53.500;10.176;2022-07-11T00:58:44;10.90;99.90
7030;DHT22;3556;53.500;10.176;2022-07-11T01:01:10;10.80;99.90
7030;DHT22;3556;53.500;10.176;2022-07-11T01:03:36;10.80;99.90
7030;DHT22;3556;53.500;10.176;2022-07-11T01:06:06;10.80;99.90
7030;DHT22;3556;53.500;10.176;2022-07-11T01:08:32;10.80;99.90
7030;DHT22;3556;53.500;10.176;2022-07-11T01:11:05;10.80;99.90
7030;DHT22;3556;53.500;10.176;2022-07-11T01:13:34;10.80;99.90
7030;DHT22;3556;53.500;10.176;2022-07-11T01:16:29;10.70;99.90
7030;DHT22;3556;53.500;10.176;2022-07-11T01:18:56;10.70;99.90
7030;DHT22;3556;53.500;10.176;2022-07-11T01:21:38;10.70;99.90
7030;DHT22;3556;53.500;10.176;2022-07-11T01:24:08;10.70;99.90
7030;DHT22;3556;53.500;10.176;2022-07-11T01:26:35;10.70;99.90
7030;DHT22;3556;53.500;10.176;2022-07-11T01:29:11;10.70;99.90
7030;DHT22;3556;53.500;10.176;2022-07-11T01:31:44;10.60;99.90
7030;DHT22;3556;53.500;10.176;2022-07-11T01:34:10;10.60;99.90
7030;DHT22;3556;53.500;10.176;2022-07-11T01:36:36;10.60;99.90
7030;DHT22;3556;53.500;10.176;2022-07-11T01:39:03;10.60;99.90
7030;DHT22;3556;53.500;10.176;2022-07-11T01:41:28;10.60;99.90
7030;DHT22;3556;53.500;10.176;2022-07-11T01:43:54;10.50;99.90
7030;DHT22;3556;53.500;10.176;2022-07-11T01:46:20;10.50;99.90
7030;DHT22;3556;53.500;10.176;2022-07-11T01:48:47;10.50;99.90
7030;DHT22;3556;53.500;10.176;2022-07-11T01:51:13;10.50;99.90
7030;DHT22;3556;53.500;10.176;2022-07-11T01:53:39;10.50;99.90
7030;DHT22;3556;53.500;10.176;2022-07-11T01:56:05;10.50;99.90
7030;DHT22;3556;53.500;10.176;2022-07-11T01:58:31;10.50;99.90
7030;DHT22;3556;53.500;10.176;2022-07-11T02:00:58;10.40;99.90
7030;DHT22;3556;53.500;10.176;2022-07-11T02:03:24;10.40;99.90
7030;DHT22;3556;53.500;10.176;2022-07-11T02:05:49;10.40;99.90
7030;DHT22;3556;53.500;10.176;2022-07-11T02:08:15;10.40;99.90
7030;DHT22;3556;53.500;10.176;2022-07-11T02:10:45;10.30;99.90
7030;DHT22;3556;53.500;10.176;2022-07-11T02:13:12;10.30;99.90
7030;DHT22;3556;53.500;10.176;2022-07-11T02:15:38;10.30;99.90
7030;DHT22;3556;53.500;10.176;2022-07-11T02:18:05;10.30;99.90
7030;DHT22;3556;53.500;10.176;2022-07-11T02:20:31;10.20;99.90
7030;DHT22;3556;53.500;10.176;2022-07-11T02:22:57;10.20;99.90
7030;DHT22;3556;53.500;10.176;2022-07-11T02:25:24;10.20;99.90
7030;DHT22;3556;53.500;10.176;2022-07-11T02:27:49;10.20;99.90
7030;DHT22;3556;53.500;10.176;2022-07-11T02:30:16;10.20;99.90
7030;DHT22;3556;53.500;10.176;2022-07-11T02:32:42;10.20;99.90
7030;DHT22;3556;53.500;10.176;2022-07-11T02:35:08;10.30;99.90
7030;DHT22;3556;53.500;10.176;2022-07-11T02:37:34;10.30;99.90
7030;DHT22;3556;53.500;10.176;2022-07-11T02:39:59;10.30;99.90
7030;DHT22;3556;53.500;10.176;2022-07-11T02:42:25;10.30;99.90
7030;DHT22;3556;53.500;10.176;2022-07-11T02:44:51;10.30;99.90
7030;DHT22;3556;53.500;10.176;2022-07-11T02:47:16;10.30;99.90
7030;DHT22;3556;53.500;10.176;2022-07-11T02:49:42;10.20;99.90
7030;DHT22;3556;53.500;10.176;2022-07-11T02:52:08;10.20;99.90
7030;DHT22;3556;53.500;10.176;2022-07-11T02:54:34;10.10;99.90
7030;DHT22;3556;53.500;10.176;2022-07-11T02:56:59;10.20;99.90
7030;DHT22;3556;53.500;10.176;2022-07-11T02:59:26;10.10;99.90
7030;DHT22;3556;53.500;10.176;2022-07-11T03:01:52;10.10;99.90
7030;DHT22;3556;53.500;10.176;2022-07-11T03:04:18;10.10;99.90
7030;DHT22;3556;53.500;10.176;2022-07-11T03:06:43;10.10;99.90
7030;DHT22;3556;53.500;10.176;2022-07-11T03:09:09;10.10;99.90
7030;DHT22;3556;53.500;10.176;2022-07-11T03:11:35;10.10;99.90
7030;DHT22;3556;53.500;10.176;2022-07-11T03:14:01;10.00;99.90
7030;DHT22;3556;53.500;10.176;2022-07-11T03:16:27;10.00;99.90
7030;DHT22;3556;53.500;10.176;2022-07-11T03:18:54;10.00;99.90
7030;DHT22;3556;53.500;10.176;2022-07-11T03:21:19;10.00;99.90
7030;DHT22;3556;53.500;10.176;2022-07-11T03:23:45;10.00;99.90
7030;DHT22;3556;53.500;10.176;2022-07-11T03:26:11;10.00;99.90
7030;DHT22;3556;53.500;10.176;2022-07-11T03:28:36;9.90;99.90
7030;DHT22;3556;53.500;10.176;2022-07-11T03:31:02;9.90;99.90
7030;DHT22;3556;53.500;10.176;2022-07-11T03:33:28;9.90;99.90
7030;DHT22;3556;53.500;10.176;2022-07-11T03:35:54;9.90;99.90
7030;DHT22;3556;53.500;10.176;2022-07-11T03:38:20;9.90;99.90
7030;DHT22;3556;53.500;10.176;2022-07-11T03:40:46;9.90;99.90
7030;DHT22;3556;53.500;10.176;2022-07-11T03:43:13;9.90;99.90
7030;DHT22;3556;53.500;10.176;2022-07-11T03:45:39;9.90;99.90
7030;DHT22;3556;53.500;10.176;2022-07-11T03:48:06;9.80;99.90
7030;DHT22;3556;53.500;10.176;2022-07-11T03:50:35;9.80;99.90
7030;DHT22;3556;53.500;10.176;2022-07-11T03:53:01;9.80;99.90
7030;DHT22;3556;53.500;10.176;2022-07-11T03:55:28;9.80;99.90
7030;DHT22;3556;53.500;10.176;2022-07-11T03:57:54;9.80;99.90
7030;DHT22;3556;53.500;10.176;2022-07-11T04:00:20;9.80;99.90
7030;DHT22;3556;53.500;10.176;2022-07-11T04:02:49;9.80;99.90
7030;DHT22;3556;53.500;10.176;2022-07-11T04:05:15;9.90;99.90
7030;DHT22;3556;53.500;10.176;2022-07-11T04:07:41;9.90;99.90
7030;DHT22;3556;53.500;10.176;2022-07-11T04:10:08;9.90;99.90
7030;DHT22;3556;53.500;10.176;2022-07-11T04:12:34;9.90;99.90
7030;DHT22;3556;53.500;10.176;2022-07-11T04:15:00;9.90;99.90
7030;DHT22;3556;53.500;10.176;2022-07-11T04:17:26;10.00;99.90
7030;DHT22;3556;53.500;10.176;2022-07-11T04:19:52;10.00;99.90
7030;DHT22;3556;53.500;10.176;2022-07-11T04:22:18;10.00;99.90
7030;DHT22;3556;53.500;10.176;2022-07-11T04:24:44;10.10;99.90
7030;DHT22;3556;53.500;10.176;2022-07-11T04:27:10;10.10;99.90
7030;DHT22;3556;53.500;10.176;2022-07-11T04:29:35;10.20;99.90
7030;DHT22;3556;53.500;10.176;2022-07-11T04:32:01;10.20;99.90
7030;DHT22;3556;53.500;10.176;2022-07-11T04:34:26;10.30;99.90
7030;DHT22;3556;53.500;10.176;2022-07-11T04:36:52;10.40;99.90
7030;DHT22;3556;53.500;10.176;2022-07-11T04:39:18;10.40;99.90
7030;DHT22;3556;53.500;10.176;2022-07-11T04:41:43;10.50;99.90
7030;DHT22;3556;53.500;10.176;2022-07-11T04:44:09;10.50;99.90
7030;DHT22;3556;53.500;10.176;2022-07-11T04:46:36;10.70;99.90
7030;DHT22;3556;53.500;10.176;2022-07-11T04:49:01;10.70;99.90
7030;DHT22;3556;53.500;10.176;2022-07-11T04:51:27;10.80;99.90
7030;DHT22;3556;53.500;10.176;2022-07-11T04:53:53;10.90;99.90
7030;DHT22;3556;53.500;10.176;2022-07-11T04:56:18;11.00;99.90
7030;DHT22;3556;53.500;10.176;2022-07-11T04:58:44;11.10;99.90
7030;DHT22;3556;53.500;10.176;2022-07-11T05:01:10;11.30;99.90
7030;DHT22;3556;53.500;10.176;2022-07-11T05:03:35;11.40;99.90
7030;DHT22;3556;53.500;10.176;2022-07-11T05:06:02;11.50;99.90
7030;DHT22;3556;53.500;10.176;2022-07-11T05:08:28;11.60;99.90
7030;DHT22;3556;53.500;10.176;2022-07-11T05:10:55;11.80;99.90
7030;DHT22;3556;53.500;10.176;2022-07-11T05:13:21;11.90;99.90
7030;DHT22;3556;53.500;10.176;2022-07-11T05:15:46;12.00;99.90
7030;DHT22;3556;53.500;10.176;2022-07-11T05:18:12;12.10;99.90
7030;DHT22;3556;53.500;10.176;2022-07-11T05:20:38;12.20;99.90
7030;DHT22;3556;53.500;10.176;2022-07-11T05:23:03;12.40;99.90
7030;DHT22;3556;53.500;10.176;2022-07-11T05:25:29;12.50;99.90
7030;DHT22;3556;53.500;10.176;2022-07-11T05:27:55;12.60;99.90
7030;DHT22;3556;53.500;10.176;2022-07-11T05:30:21;12.70;99.90
7030;DHT22;3556;53.500;10.176;2022-07-11T05:32:46;12.80;99.90
7030;DHT22;3556;53.500;10.176;2022-07-11T05:35:12;12.90;99.90
7030;DHT22;3556;53.500;10.176;2022-07-11T05:37:37;13.00;99.90
7030;DHT22;3556;53.500;10.176;2022-07-11T05:40:04;13.20;99.90
7030;DHT22;3556;53.500;10.176;2022-07-11T05:42:31;13.20;99.90
7030;DHT22;3556;53.500;10.176;2022-07-11T05:44:57;13.40;99.90
7030;DHT22;3556;53.500;10.176;2022-07-11T05:47:22;13.50;99.90
7030;DHT22;3556;53.500;10.176;2022-07-11T05:49:48;13.60;99.90
7030;DHT22;3556;53.500;10.176;2022-07-11T05:52:14;13.70;99.90
7030;DHT22;3556;53.500;10.176;2022-07-11T05:54:40;13.80;99.90
7030;DHT22;3556;53.500;10.176;2022-07-11T05:57:05;13.90;99.90
7030;DHT22;3556;53.500;10.176;2022-07-11T05:59:31;14.10;99.90
7030;DHT22;3556;53.500;10.176;2022-07-11T06:01:57;14.20;99.90
7030;DHT22;3556;53.500;10.176;2022-07-11T06:04:22;14.30;99.90
7030;DHT22;3556;53.500;10.176;2022-07-11T06:06:48;14.40;99.90
7030;DHT22;3556;53.500;10.176;2022-07-11T06:09:14;14.60;99.90
7030;DHT22;3556;53.500;10.176;2022-07-11T06:11:40;14.70;99.90
7030;DHT22;3556;53.500;10.176;2022-07-11T06:14:06;14.80;99.90
7030;DHT22;3556;53.500;10.176;2022-07-11T06:16:32;14.90;99.90
7030;DHT22;3556;53.500;10.176;2022-07-11T06:18:58;15.10;99.90
7030;DHT22;3556;53.500;10.176;2022-07-11T06:21:25;15.20;99.90
7030;DHT22;3556;53.500;10.176;2022-07-11T06:23:50;15.30;99.90
7030;DHT22;3556;53.500;10.176;2022-07-11T06:26:16;15.50;99.90
7030;DHT22;3556;53.500;10.176;2022-07-11T06:28:42;15.50;99.90
7030;DHT22;3556;53.500;10.176;2022-07-11T06:31:08;15.60;99.90
7030;DHT22;3556;53.500;10.176;2022-07-11T06:33:34;15.70;99.90
7030;DHT22;3556;53.500;10.176;2022-07-11T06:36:01;15.80;99.90
7030;DHT22;3556;53.500;10.176;2022-07-11T06:38:27;15.90;99.90
7030;DHT22;3556;53.500;10.176;2022-07-11T06:40:54;16.00;99.90
7030;DHT22;3556;53.500;10.176;2022-07-11T06:43:20;16.10;99.90
7030;DHT22;3556;53.500;10.176;2022-07-11T06:45:46;16.20;99.90
7030;DHT22;3556;53.500;10.176;2022-07-11T06:48:13;16.30;99.90
7030;DHT22;3556;53.500;10.176;2022-07-11T06:50:39;16.30;99.90
7030;DHT22;3556;53.500;10.176;2022-07-11T06:53:04;16.40;99.90
7030;DHT22;3556;53.500;10.176;2022-07-11T06:55:31;16.50;99.90
7030;DHT22;3556;53.500;10.176;2022-07-11T06:57:57;16.60;99.90
7030;DHT22;3556;53.500;10.176;2022-07-11T07:00:23;16.70;99.90
7030;DHT22;3556;53.500;10.176;2022-07-11T07:02:49;16.80;99.90
7030;DHT22;3556;53.500;10.176;2022-07-11T07:05:15;16.80;99.90
7030;DHT22;3556;53.500;10.176;2022-07-11T07:07:40;16.90;99.90
7030;DHT22;3556;53.500;10.176;2022-07-11T07:10:07;17.00;99.90
7030;DHT22;3556;53.500;10.176;2022-07-11T07:12:32;17.10;99.90
7030;DHT22;3556;53.500;10.176;2022-07-11T07:15:02;17.30;99.90
7030;DHT22;3556;53.500;10.176;2022-07-11T07:17:28;17.40;99.90
7030;DHT22;3556;53.500;10.176;2022-07-11T07:19:53;17.40;99.90
7030;DHT22;3556;53.500;10.176;2022-07-11T07:22:19;17.50;99.90
7030;DHT22;3556;53.500;10.176;2022-07-11T07:24:44;17.50;99.90
7030;DHT22;3556;53.500;10.176;2022-07-11T07:27:10;17.50;99.90
7030;DHT22;3556;53.500;10.176;2022-07-11T07:29:36;17.60;99.90
7030;DHT22;3556;53.500;10.176;2022-07-11T07:32:02;17.60;99.90
7030;DHT22;3556;53.500;10.176;2022-07-11T07:34:28;17.70;99.90
7030;DHT22;3556;53.500;10.176;2022-07-11T07:36:54;17.80;99.90
7030;DHT22;3556;53.500;10.176;2022-07-11T07:39:20;17.90;99.90
7030;DHT22;3556;53.500;10.176;2022-07-11T07:41:45;17.90;99.90
7030;DHT22;3556;53.500;10.176;2022-07-11T07:44:11;18.10;99.90
7030;DHT22;3556;53.500;10.176;2022-07-11T07:46:37;18.10;99.90
7030;DHT22;3556;53.500;10.176;2022-07-11T07:49:02;18.20;99.90
7030;DHT22;3556;53.500;10.176;2022-07-11T07:51:29;18.40;99.90
7030;DHT22;3556;53.500;10.176;2022-07-11T07:53:54;18.50;99.90
7030;DHT22;3556;53.500;10.176;2022-07-11T07:56:20;18.60;99.90
7030;DHT22;3556;53.500;10.176;2022-07-11T07:58:46;18.60;99.90
7030;DHT22;3556;53.500;10.176;2022-07-11T08:01:12;18.70;99.90
7030;DHT22;3556;53.500;10.176;2022-07-11T08:03:56;18.80;99.90
7030;DHT22;3556;53.500;10.176;2022-07-11T08:06:22;18.80;99.90
7030;DHT22;3556;53.500;10.176;2022-07-11T08:08:48;18.70;99.90
7030;DHT22;3556;53.500;10.176;2022-07-11T08:11:14;18.60;99.90
7030;DHT22;3556;53.500;10.176;2022-07-11T08:13:40;18.60;99.90
7030;DHT22;3556;53.500;10.176;2022-07-11T08:16:06;18.60;99.90
7030;DHT22;3556;53.500;10.176;2022-07-11T08:18:32;18.60;99.90
7030;DHT22;3556;53.500;10.176;2022-07-11T08:20:58;18.80;99.90
7030;DHT22;3556;53.500;10.176;2022-07-11T08:23:24;19.00;99.90
7030;DHT22;3556;53.500;10.176;2022-07-11T08:25:50;19.10;99.90
7030;DHT22;3556;53.500;10.176;2022-07-11T08:28:15;19.30;99.90
7030;DHT22;3556;53.500;10.176;2022-07-11T08:30:41;19.40;99.90
7030;DHT22;3556;53.500;10.176;2022-07-11T08:33:07;19.70;99.90
7030;DHT22;3556;53.500;10.176;2022-07-11T08:35:32;19.80;99.90
7030;DHT22;3556;53.500;10.176;2022-07-11T08:37:58;19.80;99.90
7030;DHT22;3556;53.500;10.176;2022-07-11T08:40:23;19.70;99.90
7030;DHT22;3556;53.500;10.176;2022-07-11T08:42:49;19.60;99.90
7030;DHT22;3556;53.500;10.176;2022-07-11T08:45:16;19.50;99.90
7030;DHT22;3556;53.500;10.176;2022-07-11T08:47:42;19.60;99.90
7030;DHT22;3556;53.500;10.176;2022-07-11T08:50:12;19.50;99.90
7030;DHT22;3556;53.500;10.176;2022-07-11T08:52:38;19.60;99.90
7030;DHT22;3556;53.500;10.176;2022-07-11T08:55:05;19.60;99.90
7030;DHT22;3556;53.500;10.176;2022-07-11T08:57:35;19.60;99.90
7030;DHT22;3556;53.500;10.176;2022-07-11T09:00:01;19.60;99.90
7030;DHT22;3556;53.500;10.176;2022-07-11T09:02:27;19.70;99.90
7030;DHT22;3556;53.500;10.176;2022-07-11T09:04:54;19.80;99.90
7030;DHT22;3556;53.500;10.176;2022-07-11T09:07:20;19.90;99.90
7030;DHT22;3556;53.500;10.176;2022-07-11T09:09:45;19.90;99.90
7030;DHT22;3556;53.500;10.176;2022-07-11T09:12:12;20.10;99.90
7030;DHT22;3556;53.500;10.176;2022-07-11T09:14:39;20.20;99.90
7030;DHT22;3556;53.500;10.176;2022-07-11T09:17:10;20.50;99.90
7030;DHT22;3556;53.500;10.176;2022-07-11T09:19:36;20.70;99.90
7030;DHT22;3556;53.500;10.176;2022-07-11T09:22:11;20.70;99.90
7030;DHT22;3556;53.500;10.176;2022-07-11T09:27:59;20.30;99.50
7030;DHT22;3556;53.500;10.176;2022-07-11T09:30:33;20.40;99.90
7030;DHT22;3556;53.500;10.176;2022-07-11T09:33:06;20.60;99.90
7030;DHT22;3556;53.500;10.176;2022-07-11T09:35:36;20.90;99.10
7030;DHT22;3556;53.500;10.176;2022-07-11T09:38:13;21.00;98.60
7030;DHT22;3556;53.500;10.176;2022-07-11T09:40:45;21.20;99.00
7030;DHT22;3556;53.500;10.176;2022-07-11T09:43:12;21.20;97.10
7030;DHT22;3556;53.500;10.176;2022-07-11T09:45:38;21.20;98.20
7030;DHT22;3556;53.500;10.176;2022-07-11T09:48:12;21.20;98.40
7030;DHT22;3556;53.500;10.176;2022-07-11T09:50:40;21.20;98.50
7030;DHT22;3556;53.500;10.176;2022-07-11T09:53:11;21.20;99.00
7030;DHT22;3556;53.500;10.176;2022-07-11T09:55:42;21.30;98.60
7030;DHT22;3556;53.500;10.176;2022-07-11T09:58:11;21.40;97.80
7030;DHT22;3556;53.500;10.176;2022-07-11T10:00:39;21.60;98.30
7030;DHT22;3556;53.500;10.176;2022-07-11T10:03:07;21.70;98.60
7030;DHT22;3556;53.500;10.176;2022-07-11T10:05:33;21.70;97.20
7030;DHT22;3556;53.500;10.176;2022-07-11T10:08:00;21.60;96.30
7030;DHT22;3556;53.500;10.176;2022-07-11T10:10:28;21.40;97.00
7030;DHT22;3556;53.500;10.176;2022-07-11T10:12:55;21.50;97.00
7030;DHT22;3556;53.500;10.176;2022-07-11T10:15:34;21.60;96.10
7030;DHT22;3556;53.500;10.176;2022-07-11T10:18:18;21.80;96.50
7030;DHT22;3556;53.500;10.176;2022-07-11T10:20:57;22.10;96.70
7030;DHT22;3556;53.500;10.176;2022-07-11T10:32:11;22.50;96.10
7030;DHT22;3556;53.500;10.176;2022-07-11T10:34:37;22.70;94.70
7030;DHT22;3556;53.500;10.176;2022-07-11T10:37:07;23.00;96.60
7030;DHT22;3556;53.500;10.176;2022-07-11T10:39:34;23.10;95.80
7030;DHT22;3556;53.500;10.176;2022-07-11T10:42:03;23.00;95.80
7030;DHT22;3556;53.500;10.176;2022-07-11T10:44:48;22.80;95.30
7030;DHT22;3556;53.500;10.176;2022-07-11T10:47:34;22.70;95.60
7030;DHT22;3556;53.500;10.176;2022-07-11T10:50:13;22.80;96.30
7030;DHT22;3556;53.500;10.176;2022-07-11T10:52:48;23.00;95.40
7030;DHT22;3556;53.500;10.176;2022-07-11T10:55:35;23.30;95.30
7030;DHT22;3556;53.500;10.176;2022-07-11T10:58:25;23.50;93.60
7030;DHT22;3556;53.500;10.176;2022-07-11T11:03:36;24.00;91.20
7030;DHT22;3556;53.500;10.176;2022-07-11T11:06:02;24.00;92.70
7030;DHT22;3556;53.500;10.176;2022-07-11T11:11:01;23.70;94.40
7030;DHT22;3556;53.500;10.176;2022-07-11T11:13:28;23.50;92.20
7030;DHT22;3556;53.500;10.176;2022-07-11T11:16:00;23.40;93.30
7030;DHT22;3556;53.500;10.176;2022-07-11T11:23:37;24.10;90.40
7030;DHT22;3556;53.500;10.176;2022-07-11T11:26:20;24.00;91.80
7030;DHT22;3556;53.500;10.176;2022-07-11T11:28:56;23.90;91.50
7030;DHT22;3556;53.500;10.176;2022-07-11T11:31:22;24.10;92.10
7030;DHT22;3556;53.500;10.176;2022-07-11T11:33:48;24.50;93.40
7030;DHT22;3556;53.500;10.176;2022-07-11T11:36:19;25.00;91.50
7030;DHT22;3556;53.500;10.176;2022-07-11T11:38:45;25.30;90.00
7030;DHT22;3556;53.500;10.176;2022-07-11T11:41:20;25.50;88.40
7030;DHT22;3556;53.500;10.176;2022-07-11T11:43:47;25.10;86.20
7030;DHT22;3556;53.500;10.176;2022-07-11T11:46:13;24.70;88.50
7030;DHT22;3556;53.500;10.176;2022-07-11T11:48:40;24.50;91.50
7030;DHT22;3556;53.500;10.176;2022-07-11T11:51:13;24.50;91.20
7030;DHT22;3556;53.500;10.176;2022-07-11T11:53:56;24.80;91.80
7030;DHT22;3556;53.500;10.176;2022-07-11T11:56:28;25.20;90.90
7030;DHT22;3556;53.500;10.176;2022-07-11T11:59:00;25.60;89.40
7030;DHT22;3556;53.500;10.176;2022-07-11T12:01:37;25.80;88.20
7030;DHT22;3556;53.500;10.176;2022-07-11T12:04:11;25.60;87.10
7030;DHT22;3556;53.500;10.176;2022-07-11T12:06:38;25.50;89.60
7030;DHT22;3556;53.500;10.176;2022-07-11T12:09:08;25.70;86.40
7030;DHT22;3556;53.500;10.176;2022-07-11T12:11:42;25.90;85.10
7030;DHT22;3556;53.500;10.176;2022-07-11T12:14:10;26.00;81.20
7030;DHT22;3556;53.500;10.176;2022-07-11T12:16:41;26.20;83.10
7030;DHT22;3556;53.500;10.176;2022-07-11T12:19:15;26.30;80.80
7030;DHT22;3556;53.500;10.176;2022-07-11T12:21:49;26.40;82.70
7030;DHT22;3556;53.500;10.176;2022-07-11T12:24:18;26.60;80.20
7030;DHT22;3556;53.500;10.176;2022-07-11T12:26:46;26.50;81.60
7030;DHT22;3556;53.500;10.176;2022-07-11T12:29:20;26.70;83.10
7030;DHT22;3556;53.500;10.176;2022-07-11T12:31:51;27.00;82.70
7030;DHT22;3556;53.500;10.176;2022-07-11T12:34:25;27.30;79.20
7030;DHT22;3556;53.500;10.176;2022-07-11T12:39:32;27.70;77.70
7030;DHT22;3556;53.500;10.176;2022-07-11T12:42:02;27.90;78.40
7030;DHT22;3556;53.500;10.176;2022-07-11T12:45:10;28.10;75.50
7030;DHT22;3556;53.500;10.176;2022-07-11T12:47:44;28.40;75.60
7030;DHT22;3556;53.500;10.176;2022-07-11T12:50:18;28.70;71.70
7030;DHT22;3556;53.500;10.176;2022-07-11T12:52:46;28.80;74.50
7030;DHT22;3556;53.500;10.176;2022-07-11T12:55:42;28.60;73.10
7030;DHT22;3556;53.500;10.176;2022-07-11T12:58:13;28.30;74.10
7030;DHT22;3556;53.500;10.176;2022-07-11T13:00:59;28.00;73.90
7030;DHT22;3556;53.500;10.176;2022-07-11T13:03:35;27.90;74.60
7030;DHT22;3556;53.500;10.176;2022-07-11T13:06:02;28.00;70.90
7030;DHT22;3556;53.500;10.176;2022-07-11T13:08:32;28.20;73.20
7030;DHT22;3556;53.500;10.176;2022-07-11T13:13:41;28.80;70.70
7030;DHT22;3556;53.500;10.176;2022-07-11T13:16:07;28.60;67.10
7030;DHT22;3556;53.500;10.176;2022-07-11T13:18:33;28.10;69.10
7030;DHT22;3556;53.500;10.176;2022-07-11T13:20:59;27.70;70.30
7030;DHT22;3556;53.500;10.176;2022-07-11T13:23:26;27.30;72.70
7030;DHT22;3556;53.500;10.176;2022-07-11T13:25:53;27.00;76.40
7030;DHT22;3556;53.500;10.176;2022-07-11T13:28:18;27.10;74.40
7030;DHT22;3556;53.500;10.176;2022-07-11T13:30:44;27.30;70.30
7030;DHT22;3556;53.500;10.176;2022-07-11T13:33:10;27.50;71.10
7030;DHT22;3556;53.500;10.176;2022-07-11T13:35:36;27.90;65.50
7030;DHT22;3556;53.500;10.176;2022-07-11T13:38:02;28.00;71.30
7030;DHT22;3556;53.500;10.176;2022-07-11T13:40:27;27.90;69.30
7030;DHT22;3556;53.500;10.176;2022-07-11T13:42:54;27.90;69.70
7030;DHT22;3556;53.500;10.176;2022-07-11T13:45:22;27.90;69.50
7030;DHT22;3556;53.500;10.176;2022-07-11T13:47:49;27.80;71.40
7030;DHT22;3556;53.500;10.176;2022-07-11T13:50:15;28.00;73.50
7030;DHT22;3556;53.500;10.176;2022-07-11T13:52:41;28.30;67.70
7030;DHT22;3556;53.500;10.176;2022-07-11T13:55:12;28.60;68.90
7030;DHT22;3556;53.500;10.176;2022-07-11T13:57:38;28.90;65.10
7030;DHT22;3556;53.500;10.176;2022-07-11T14:00:05;29.10;67.90
7030;DHT22;3556;53.500;10.176;2022-07-11T14:02:31;28.70;63.40
7030;DHT22;3556;53.500;10.176;2022-07-11T14:04:58;28.40;64.40
7030;DHT22;3556;53.500;10.176;2022-07-11T14:07:24;28.20;65.10
7030;DHT22;3556;53.500;10.176;2022-07-11T14:09:50;27.90;66.10
7030;DHT22;3556;53.500;10.176;2022-07-11T14:12:16;27.50;66.10
7030;DHT22;3556;53.500;10.176;2022-07-11T14:14:42;27.30;65.10
7030;DHT22;3556;53.500;10.176;2022-07-11T14:17:08;27.30;68.20
7030;DHT22;3556;53.500;10.176;2022-07-11T14:19:33;27.50;67.50
7030;DHT22;3556;53.500;10.176;2022-07-11T14:22:03;27.90;69.70
7030;DHT22;3556;53.500;10.176;2022-07-11T14:24:31;28.30;65.30
7030;DHT22;3556;53.500;10.176;2022-07-11T14:26:57;28.70;64.90
7030;DHT22;3556;53.500;10.176;2022-07-11T14:29:23;29.10;63.00
7030;DHT22;3556;53.500;10.176;2022-07-11T14:31:51;29.20;63.40
7030;DHT22;3556;53.500;10.176;2022-07-11T14:34:18;28.90;64.00
7030;DHT22;3556;53.500;10.176;2022-07-11T14:36:43;28.60;65.00
7030;DHT22;3556;53.500;10.176;2022-07-11T14:39:09;28.50;65.10
7030;DHT22;3556;53.500;10.176;2022-07-11T14:41:35;28.40;66.30
7030;DHT22;3556;53.500;10.176;2022-07-11T14:44:01;28.50;65.60
7030;DHT22;3556;53.500;10.176;2022-07-11T14:46:28;28.70;66.20
7030;DHT22;3556;53.500;10.176;2022-07-11T14:48:54;28.90;64.90
7030;DHT22;3556;53.500;10.176;2022-07-11T14:51:20;29.10;61.20
7030;DHT22;3556;53.500;10.176;2022-07-11T14:53:45;29.10;61.80
7030;DHT22;3556;53.500;10.176;2022-07-11T14:56:11;28.90;61.50
7030;DHT22;3556;53.500;10.176;2022-07-11T14:58:37;28.60;67.20
7030;DHT22;3556;53.500;10.176;2022-07-11T15:01:03;28.50;63.50
7030;DHT22;3556;53.500;10.176;2022-07-11T15:03:29;28.20;65.70
7030;DHT22;3556;53.500;10.176;2022-07-11T15:06:08;28.30;64.60
7030;DHT22;3556;53.500;10.176;2022-07-11T15:08:34;28.30;66.00
7030;DHT22;3556;53.500;10.176;2022-07-11T15:11:19;28.30;65.30
7030;DHT22;3556;53.500;10.176;2022-07-11T15:14:04;28.30;64.30
7030;DHT22;3556;53.500;10.176;2022-07-11T15:16:31;28.50;64.70
7030;DHT22;3556;53.500;10.176;2022-07-11T15:19:00;28.80;65.10
7030;DHT22;3556;53.500;10.176;2022-07-11T15:21:26;28.70;64.50
7030;DHT22;3556;53.500;10.176;2022-07-11T15:23:52;28.50;65.90
7030;DHT22;3556;53.500;10.176;2022-07-11T15:26:18;28.30;69.60
7030;DHT22;3556;53.500;10.176;2022-07-11T15:28:44;28.30;66.40
7030;DHT22;3556;53.500;10.176;2022-07-11T15:31:10;28.10;67.60
7030;DHT22;3556;53.500;10.176;2022-07-11T15:33:38;28.00;67.10
7030;DHT22;3556;53.500;10.176;2022-07-11T15:36:04;27.80;66.90
7030;DHT22;3556;53.500;10.176;2022-07-11T15:38:29;27.60;67.30
7030;DHT22;3556;53.500;10.176;2022-07-11T15:40:55;27.40;69.10
7030;DHT22;3556;53.500;10.176;2022-07-11T15:43:21;27.30;67.20
7030;DHT22;3556;53.500;10.176;2022-07-11T15:45:47;27.30;68.90
7030;DHT22;3556;53.500;10.176;2022-07-11T15:48:13;27.30;68.60
7030;DHT22;3556;53.500;10.176;2022-07-11T15:50:39;27.30;68.20
7030;DHT22;3556;53.500;10.176;2022-07-11T15:53:04;27.40;69.40
7030;DHT22;3556;53.500;10.176;2022-07-11T15:55:30;27.30;69.40
7030;DHT22;3556;53.500;10.176;2022-07-11T15:57:55;27.30;69.10
7030;DHT22;3556;53.500;10.176;2022-07-11T16:00:21;27.10;69.80
7030;DHT22;3556;53.500;10.176;2022-07-11T16:02:47;27.00;69.60
7030;DHT22;3556;53.500;10.176;2022-07-11T16:05:14;26.80;67.60
7030;DHT22;3556;53.500;10.176;2022-07-11T16:07:40;26.70;68.10
7030;DHT22;3556;53.500;10.176;2022-07-11T16:10:06;26.60;69.90
7030;DHT22;3556;53.500;10.176;2022-07-11T16:12:33;26.60;70.70
7030;DHT22;3556;53.500;10.176;2022-07-11T16:14:59;26.50;70.50
7030;DHT22;3556;53.500;10.176;2022-07-11T16:17:25;26.50;73.30